createdAt,value
2023-10-26T00:01:18.760Z,74.32
2023-10-26T00:03:47.039Z,74.18
2023-10-26T00:06:15.303Z,74.20
2023-10-26T00:08:43.434Z,74.31
2023-10-26T00:11:11.678Z,74.38
2023-10-26T00:13:39.581Z,74.59
2023-10-26T00:16:07.670Z,74.47
2023-10-26T00:18:35.754Z,74.36
2023-10-26T00:21:03.970Z,74.61
2023-10-26T00:23:31.945Z,74.60
2023-10-26T00:25:59.839Z,74.54
2023-10-26T00:28:27.731Z,74.71
2023-10-26T00:30:55.784Z,74.73
2023-10-26T00:33:23.892Z,74.58
2023-10-26T00:35:54.300Z,74.72
2023-10-26T00:38:22.415Z,74.63
2023-10-26T00:40:50.363Z,74.58
2023-10-26T00:43:23.171Z,74.66
2023-10-26T00:45:53.400Z,74.84
2023-10-26T00:48:22.350Z,74.91
2023-10-26T00:50:50.836Z,74.53
2023-10-26T00:53:21.325Z,74.69
2023-10-26T00:55:52.462Z,74.47
2023-10-26T00:58:22.583Z,74.45
2023-10-26T01:00:50.889Z,74.82
2023-10-26T01:03:19.994Z,74.98
2023-10-26T01:05:48.760Z,74.89
2023-10-26T01:08:17.056Z,74.96
2023-10-26T01:10:46.469Z,75.21
2023-10-26T01:13:14.981Z,75.46
2023-10-26T01:15:43.199Z,75.46
2023-10-26T01:18:11.314Z,74.93
2023-10-26T01:20:42.476Z,74.89
2023-10-26T01:23:11.068Z,74.89
2023-10-26T01:25:39.115Z,75.05
2023-10-26T01:28:08.414Z,74.91
2023-10-26T01:30:36.369Z,74.81
2023-10-26T01:33:04.450Z,74.72
2023-10-26T01:35:42.043Z,74.85
2023-10-26T01:38:10.223Z,74.83
2023-10-26T01:40:38.298Z,74.64
2023-10-26T01:43:06.770Z,74.40
2023-10-26T01:45:34.979Z,74.41
2023-10-26T01:48:06.354Z,74.32
2023-10-26T01:50:34.538Z,74.33
2023-10-26T01:53:02.545Z,74.65
2023-10-26T01:55:30.614Z,74.46
2023-10-26T01:57:59.172Z,74.61
2023-10-26T02:00:27.300Z,74.65
2023-10-26T02:02:57.244Z,74.52
2023-10-26T02:05:26.458Z,74.52
2023-10-26T02:07:54.643Z,74.59
2023-10-26T02:10:25.104Z,74.47
2023-10-26T02:12:53.218Z,74.38
2023-10-26T02:15:21.499Z,74.36
2023-10-26T02:17:49.907Z,74.33
2023-10-26T02:20:18.201Z,74.41
2023-10-26T02:22:48.005Z,74.34
2023-10-26T02:25:16.664Z,74.40
2023-10-26T02:27:44.816Z,74.37
2023-10-26T02:30:13.578Z,74.14
2023-10-26T02:32:41.965Z,73.81
2023-10-26T02:35:10.285Z,74.04
2023-10-26T02:37:41.756Z,74.26
2023-10-26T02:40:10.830Z,74.59
2023-10-26T02:42:40.346Z,74.74
2023-10-26T02:45:10.035Z,74.78
2023-10-26T02:47:39.144Z,74.56
2023-10-26T02:50:07.951Z,74.57
2023-10-26T02:52:36.760Z,74.62
2023-10-26T02:55:06.651Z,74.69
2023-10-26T02:57:34.593Z,74.69
2023-10-26T03:00:02.761Z,74.80
2023-10-26T03:02:30.806Z,74.56
2023-10-26T03:04:58.802Z,74.58
2023-10-26T03:07:26.749Z,74.63
2023-10-26T03:09:54.831Z,74.78
2023-10-26T03:12:23.753Z,74.89
2023-10-26T03:14:51.668Z,74.50
2023-10-26T03:17:19.718Z,74.36
2023-10-26T03:19:47.662Z,75.01
2023-10-26T03:22:15.850Z,75.49
2023-10-26T03:24:44.050Z,75.59
2023-10-26T03:27:12.216Z,75.95
2023-10-26T03:29:40.436Z,76.24
2023-10-26T03:32:08.403Z,76.27
2023-10-26T03:34:36.465Z,76.44
2023-10-26T03:37:05.140Z,76.78
2023-10-26T03:39:33.293Z,77.04
2023-10-26T03:42:01.538Z,77.01
2023-10-26T03:44:29.759Z,77.54
2023-10-26T03:46:57.785Z,77.41
2023-10-26T03:49:26.362Z,77.51
2023-10-26T03:51:55.375Z,77.96
2023-10-26T03:54:23.541Z,77.99
2023-10-26T03:56:51.484Z,77.94
2023-10-26T03:59:19.464Z,77.94
2023-10-26T04:01:47.568Z,77.83
2023-10-26T04:04:15.559Z,77.88
2023-10-26T04:06:43.702Z,78.01
2023-10-26T04:09:11.837Z,78.40
2023-10-26T04:11:39.905Z,78.44
2023-10-26T04:14:08.818Z,78.78
2023-10-26T04:16:36.815Z,79.23
2023-10-26T04:19:04.899Z,79.43
2023-10-26T04:21:33.043Z,79.46
2023-10-26T04:24:01.302Z,79.91
2023-10-26T04:26:29.537Z,80.26
2023-10-26T04:28:57.718Z,80.24
2023-10-26T04:31:26.326Z,80.25
2023-10-26T04:33:54.436Z,80.30
2023-10-26T04:36:23.019Z,79.94
2023-10-26T04:38:51.684Z,80.01
2023-10-26T04:41:19.904Z,80.22
2023-10-26T04:43:47.893Z,80.53
2023-10-26T04:46:15.984Z,81.02
2023-10-26T04:48:44.215Z,80.86
2023-10-26T04:51:12.591Z,80.86
2023-10-26T04:53:40.634Z,81.10
2023-10-26T04:56:11.757Z,80.97
2023-10-26T04:58:39.922Z,81.32
2023-10-26T05:01:08.000Z,81.37
2023-10-26T05:03:36.174Z,81.17
2023-10-26T05:06:04.479Z,80.99
2023-10-26T05:08:32.647Z,81.11
2023-10-26T05:11:00.936Z,81.72
2023-10-26T05:13:29.567Z,81.80
2023-10-26T05:15:57.680Z,81.78
2023-10-26T05:18:25.853Z,81.92
2023-10-26T05:20:53.932Z,82.26
2023-10-26T05:23:21.973Z,82.32
2023-10-26T05:25:50.176Z,81.90
2023-10-26T05:28:18.396Z,81.64
2023-10-26T05:30:46.465Z,81.91
2023-10-26T05:33:16.695Z,82.11
2023-10-26T05:35:45.906Z,81.86
2023-10-26T05:38:16.041Z,82.00
2023-10-26T05:40:55.612Z,82.05
2023-10-26T05:43:24.600Z,82.47
2023-10-26T05:45:53.742Z,82.73
2023-10-26T05:48:24.565Z,82.90
2023-10-26T05:50:52.513Z,83.19
2023-10-26T05:53:20.732Z,83.22
2023-10-26T05:56:00.090Z,83.27
2023-10-26T05:58:28.605Z,83.28
2023-10-26T06:00:57.013Z,82.88
2023-10-26T06:03:25.435Z,82.67
2023-10-26T06:05:59.655Z,82.63
2023-10-26T06:08:28.164Z,82.97
2023-10-26T06:10:56.310Z,82.99
2023-10-26T06:13:24.223Z,82.79
2023-10-26T06:15:52.281Z,82.84
2023-10-26T06:18:20.931Z,82.32
2023-10-26T06:21:02.467Z,82.64
2023-10-26T06:23:30.690Z,82.65
2023-10-26T06:25:59.654Z,82.90
2023-10-26T06:28:28.685Z,82.77
2023-10-26T06:31:08.237Z,82.68
2023-10-26T06:33:36.133Z,82.62
2023-10-26T06:36:04.696Z,82.66
2023-10-26T06:38:32.779Z,82.79
2023-10-26T06:41:00.737Z,82.75
2023-10-26T06:43:30.530Z,83.18
2023-10-26T06:46:00.494Z,83.19
2023-10-26T06:48:28.753Z,83.04
2023-10-26T06:51:02.281Z,82.82
2023-10-26T06:53:30.701Z,83.02
2023-10-26T06:55:59.753Z,83.19
2023-10-26T06:58:28.915Z,83.49
2023-10-26T07:00:57.666Z,83.84
2023-10-26T07:03:26.028Z,83.77
2023-10-26T07:05:54.794Z,83.50
2023-10-26T07:08:22.971Z,83.44
2023-10-26T07:10:51.054Z,83.38
2023-10-26T07:13:19.768Z,83.61
2023-10-26T07:15:48.326Z,83.59
2023-10-26T07:18:19.504Z,83.63
2023-10-26T07:20:50.528Z,83.63
2023-10-26T07:23:19.586Z,83.92
2023-10-26T07:25:48.709Z,83.54
2023-10-26T07:28:18.116Z,83.54
2023-10-26T07:30:51.922Z,83.77
2023-10-26T07:33:20.800Z,83.64
2023-10-26T07:35:54.109Z,83.71
2023-10-26T07:38:35.654Z,83.63
2023-10-26T07:41:07.012Z,83.72
2023-10-26T07:43:36.220Z,83.64
2023-10-26T07:46:05.001Z,83.32
2023-10-26T07:48:33.259Z,83.34
2023-10-26T07:51:01.256Z,83.37
2023-10-26T07:53:32.458Z,83.62
2023-10-26T07:56:00.636Z,83.48
2023-10-26T07:58:31.635Z,83.64
2023-10-26T08:01:00.443Z,83.53
2023-10-26T08:03:29.267Z,83.41
2023-10-26T08:06:04.011Z,83.22
2023-10-26T08:08:32.091Z,83.43
2023-10-26T08:11:09.594Z,83.59
2023-10-26T08:13:37.609Z,83.41
2023-10-26T08:16:34.415Z,83.22
2023-10-26T08:18:54.512Z,83.28
2023-10-26T08:21:22.610Z,83.13
2023-10-26T08:23:50.765Z,83.19
2023-10-26T08:26:18.814Z,82.99
2023-10-26T08:28:47.098Z,82.72
2023-10-26T08:31:15.039Z,82.61
2023-10-26T08:33:43.274Z,82.37
2023-10-26T08:36:11.397Z,82.46
2023-10-26T08:38:39.392Z,82.48
2023-10-26T08:41:12.373Z,82.40
2023-10-26T08:43:40.891Z,82.89
2023-10-26T08:46:11.855Z,83.03
2023-10-26T08:48:42.463Z,83.07
2023-10-26T08:51:11.457Z,83.25
2023-10-26T08:53:41.204Z,83.15
2023-10-26T08:56:11.170Z,83.27
2023-10-26T08:58:39.648Z,82.69
2023-10-26T09:01:07.931Z,82.30
2023-10-26T09:03:36.448Z,82.20
2023-10-26T09:06:04.670Z,82.11
2023-10-26T09:08:32.788Z,82.08
2023-10-26T09:11:02.606Z,81.77
2023-10-26T09:13:30.921Z,81.88
2023-10-26T09:16:00.583Z,81.75
2023-10-26T09:18:29.138Z,82.16
2023-10-26T09:21:06.104Z,82.04
2023-10-26T09:23:36.624Z,81.49
2023-10-26T09:26:09.289Z,81.21
2023-10-26T09:28:57.401Z,81.24
2023-10-26T09:31:26.431Z,81.51
2023-10-26T09:33:54.541Z,81.51
2023-10-26T09:36:23.462Z,81.62
2023-10-26T09:38:52.122Z,81.67
2023-10-26T09:41:21.264Z,81.58
2023-10-26T09:43:49.543Z,81.60
2023-10-26T09:46:21.565Z,81.41
2023-10-26T09:48:50.562Z,81.24
2023-10-26T09:51:21.366Z,80.93
2023-10-26T09:53:50.232Z,80.69
2023-10-26T09:56:26.348Z,80.72
2023-10-26T09:58:54.994Z,80.46
2023-10-26T10:01:37.387Z,80.30
2023-10-26T10:04:06.880Z,79.97
2023-10-26T10:06:53.740Z,80.05
2023-10-26T10:09:26.483Z,80.11
2023-10-26T10:12:11.051Z,79.82
2023-10-26T10:15:36.256Z,79.95
2023-10-26T10:17:58.665Z,80.16
2023-10-26T10:20:28.755Z,80.36
2023-10-26T10:22:59.794Z,80.83
2023-10-26T10:25:51.216Z,80.54
2023-10-26T10:28:19.773Z,80.40
2023-10-26T10:31:00.617Z,80.23
2023-10-26T10:33:29.788Z,80.15
2023-10-26T10:36:09.515Z,80.17
2023-10-26T10:38:37.629Z,80.33
2023-10-26T10:41:13.369Z,80.35
2023-10-26T10:43:47.608Z,80.02
2023-10-26T10:46:17.612Z,80.24
2023-10-26T10:49:05.014Z,80.04
2023-10-26T10:51:43.482Z,79.65
2023-10-26T10:54:24.099Z,79.34
2023-10-26T10:56:58.656Z,79.15
2023-10-26T10:59:28.452Z,79.12
2023-10-26T11:02:10.910Z,79.03
2023-10-26T11:05:05.241Z,79.26
2023-10-26T11:07:37.957Z,79.34
2023-10-26T11:10:06.559Z,79.61
2023-10-26T11:12:35.030Z,79.53
2023-10-26T11:15:05.090Z,79.61
2023-10-26T11:17:33.432Z,79.65
2023-10-26T11:20:01.435Z,79.41
2023-10-26T11:22:29.862Z,79.57
2023-10-26T11:24:57.833Z,79.38
2023-10-26T11:27:26.035Z,79.25
2023-10-26T11:30:06.940Z,79.21
2023-10-26T11:32:35.568Z,79.29
2023-10-26T11:35:07.447Z,79.23
2023-10-26T11:37:37.620Z,79.07
2023-10-26T11:40:10.234Z,78.94
2023-10-26T11:42:50.717Z,78.54
2023-10-26T11:45:24.050Z,78.29
2023-10-26T11:47:54.808Z,78.12
2023-10-26T11:50:26.827Z,78.31
2023-10-26T11:52:57.198Z,78.18
2023-10-26T11:55:26.426Z,78.21
2023-10-26T11:57:58.301Z,78.17
2023-10-26T12:00:27.772Z,78.34
2023-10-26T12:02:57.571Z,78.16
2023-10-26T12:05:26.678Z,77.97
2023-10-26T12:07:55.258Z,77.93
2023-10-26T12:10:24.770Z,78.09
2023-10-26T12:12:54.314Z,78.22
2023-10-26T12:15:22.583Z,78.06
2023-10-26T12:17:50.856Z,78.03
2023-10-26T12:20:19.458Z,78.32
2023-10-26T12:22:49.865Z,78.34
2023-10-26T12:25:18.075Z,78.11
2023-10-26T12:28:20.507Z,78.33
2023-10-26T12:30:37.214Z,78.49
2023-10-26T12:33:05.492Z,78.73
2023-10-26T12:35:33.574Z,78.52
2023-10-26T12:38:01.497Z,78.39
2023-10-26T12:40:29.568Z,78.54
2023-10-26T12:42:59.371Z,78.76
2023-10-26T12:45:27.493Z,78.85
2023-10-26T12:47:55.675Z,78.51
2023-10-26T12:50:23.696Z,77.99
2023-10-26T12:52:51.735Z,77.73
2023-10-26T12:55:22.137Z,77.14
2023-10-26T12:57:51.025Z,76.59
2023-10-26T13:00:20.187Z,76.62
2023-10-26T13:02:48.236Z,76.68
2023-10-26T13:05:16.471Z,76.54
2023-10-26T13:07:44.409Z,76.55
2023-10-26T13:10:12.409Z,76.66
2023-10-26T13:12:40.792Z,76.56
2023-10-26T13:15:08.999Z,76.70
2023-10-26T13:17:36.954Z,76.91
2023-10-26T13:20:05.675Z,77.00
2023-10-26T13:22:33.941Z,76.91
2023-10-26T13:25:01.990Z,77.00
2023-10-26T13:27:29.997Z,76.94
2023-10-26T13:29:58.105Z,76.88
2023-10-26T13:32:28.017Z,76.74
2023-10-26T13:34:56.200Z,76.96
2023-10-26T13:37:24.380Z,76.99
2023-10-26T13:39:52.483Z,76.84
2023-10-26T13:42:20.510Z,76.69
2023-10-26T13:44:48.673Z,76.47
2023-10-26T13:47:16.620Z,76.54
2023-10-26T13:49:44.856Z,76.50
2023-10-26T13:52:13.003Z,76.19
2023-10-26T13:54:41.110Z,76.24
2023-10-26T13:57:09.767Z,76.39
2023-10-26T13:59:38.878Z,76.49
2023-10-26T14:02:07.444Z,76.32
2023-10-26T14:04:37.327Z,76.30
2023-10-26T14:07:06.476Z,76.33
2023-10-26T14:09:34.679Z,76.34
2023-10-26T14:12:02.943Z,76.51
2023-10-26T14:14:31.417Z,76.69
2023-10-26T14:16:59.558Z,76.68
2023-10-26T14:19:28.171Z,76.80
2023-10-26T14:21:56.425Z,76.96
2023-10-26T14:24:24.363Z,77.12
2023-10-26T14:26:52.399Z,77.33
2023-10-26T14:29:20.357Z,77.42
2023-10-26T14:31:48.450Z,77.63
2023-10-26T14:34:16.633Z,77.82
2023-10-26T14:36:44.479Z,77.95
2023-10-26T14:39:12.507Z,77.90
2023-10-26T14:41:42.081Z,78.04
2023-10-26T14:44:10.363Z,78.28
2023-10-26T14:46:38.419Z,78.26
2023-10-26T14:49:06.859Z,78.43
2023-10-26T14:51:35.692Z,78.55
2023-10-26T14:54:03.831Z,78.33
2023-10-26T14:56:31.847Z,78.50
2023-10-26T14:58:59.812Z,78.56
2023-10-26T15:01:28.157Z,78.45
2023-10-26T15:03:56.879Z,78.63
2023-10-26T15:06:26.345Z,78.12
2023-10-26T15:08:54.942Z,77.97
2023-10-26T15:11:25.265Z,78.23
2023-10-26T15:13:56.269Z,78.20
2023-10-26T15:16:24.374Z,78.38
2023-10-26T15:18:52.369Z,78.32
2023-10-26T15:21:20.460Z,78.12
2023-10-26T15:23:48.522Z,78.11
2023-10-26T15:26:16.620Z,78.23
2023-10-26T15:28:44.650Z,78.49
2023-10-26T15:31:12.973Z,78.39
2023-10-26T15:33:41.123Z,78.35
2023-10-26T15:36:09.253Z,78.72
2023-10-26T15:38:42.255Z,78.42
2023-10-26T15:41:11.635Z,77.64
2023-10-26T15:43:39.772Z,77.45
2023-10-26T15:46:07.797Z,77.48
2023-10-26T15:49:33.793Z,77.39
2023-10-26T15:51:24.126Z,77.22
2023-10-26T15:53:52.020Z,76.78
2023-10-26T15:56:20.230Z,77.06
2023-10-26T15:58:52.209Z,76.90
2023-10-26T16:01:20.608Z,76.74
2023-10-26T16:03:48.697Z,76.52
2023-10-26T16:06:20.104Z,76.46
2023-10-26T16:08:49.590Z,76.58
2023-10-26T16:11:17.586Z,76.73
2023-10-26T16:13:48.910Z,76.83
2023-10-26T16:16:17.020Z,76.92
2023-10-26T16:18:47.932Z,76.90
2023-10-26T16:21:16.847Z,76.71
2023-10-26T16:23:44.943Z,76.93
2023-10-26T16:26:12.939Z,77.16
2023-10-26T16:28:41.089Z,77.46
2023-10-26T16:31:09.124Z,77.47
2023-10-26T16:33:38.029Z,77.52
2023-10-26T16:36:06.603Z,77.37
2023-10-26T16:38:34.469Z,77.38
2023-10-26T16:41:02.338Z,77.12
2023-10-26T16:43:30.331Z,76.80
2023-10-26T16:46:01.916Z,76.51
2023-10-26T16:48:30.054Z,76.60
2023-10-26T16:50:58.007Z,76.67
2023-10-26T16:53:31.364Z,76.27
2023-10-26T16:56:02.091Z,76.15
2023-10-26T16:58:32.920Z,76.08
2023-10-26T17:01:04.476Z,75.70
2023-10-26T17:03:32.595Z,75.75
2023-10-26T17:06:00.682Z,75.98
2023-10-26T17:08:32.912Z,76.27
2023-10-26T17:11:00.977Z,76.54
2023-10-26T17:13:29.113Z,76.60
2023-10-26T17:15:57.131Z,76.49
2023-10-26T17:18:25.176Z,76.42
2023-10-26T17:20:59.304Z,76.57
2023-10-26T17:23:27.393Z,76.70
2023-10-26T17:25:55.286Z,76.79
2023-10-26T17:28:23.291Z,76.74
2023-10-26T17:30:51.271Z,76.52
2023-10-26T17:33:21.225Z,76.46
2023-10-26T17:35:52.414Z,76.52
2023-10-26T17:38:20.401Z,76.84
2023-10-26T17:40:49.101Z,76.67
2023-10-26T17:43:20.487Z,76.43
2023-10-26T17:45:57.579Z,76.45
2023-10-26T17:48:33.874Z,76.63
2023-10-26T17:51:04.782Z,77.14
2023-10-26T17:53:35.321Z,77.42
2023-10-26T17:56:03.925Z,77.65
2023-10-26T17:58:31.821Z,77.52
2023-10-26T18:01:08.884Z,77.52
2023-10-26T18:03:43.223Z,77.29
2023-10-26T18:06:16.600Z,77.20
2023-10-26T18:08:44.622Z,76.92
2023-10-26T18:11:12.677Z,76.73
2023-10-26T18:13:40.648Z,76.64
2023-10-26T18:16:13.670Z,76.45
2023-10-26T18:18:45.809Z,76.25
2023-10-26T18:21:14.553Z,76.19
2023-10-26T18:23:45.421Z,76.15
2023-10-26T18:26:15.339Z,75.82
2023-10-26T18:28:47.575Z,75.87
2023-10-26T18:31:18.759Z,76.03
2023-10-26T18:33:53.065Z,76.06
2023-10-26T18:36:29.758Z,76.34
2023-10-26T18:39:12.712Z,76.41
2023-10-26T18:41:45.597Z,76.27
2023-10-26T18:44:16.645Z,76.78
2023-10-26T18:46:47.165Z,76.96
2023-10-26T18:49:15.305Z,76.94
2023-10-26T18:51:43.231Z,76.62
2023-10-26T18:54:11.212Z,76.81
2023-10-26T18:56:39.139Z,76.73
2023-10-26T18:59:08.122Z,76.78
2023-10-26T19:01:36.085Z,76.99
2023-10-26T19:04:04.254Z,76.95
2023-10-26T19:06:32.452Z,77.11
2023-10-26T19:09:00.401Z,76.83
2023-10-26T19:11:29.712Z,76.88
2023-10-26T19:13:57.990Z,76.93
2023-10-26T19:16:26.340Z,76.81
2023-10-26T19:18:54.437Z,77.01
2023-10-26T19:21:24.225Z,77.10
2023-10-26T19:23:52.260Z,77.48
2023-10-26T19:26:20.486Z,78.04
2023-10-26T19:28:48.489Z,77.95
2023-10-26T19:31:16.962Z,77.89
2023-10-26T19:33:47.930Z,78.30
2023-10-26T19:36:18.626Z,78.72
2023-10-26T19:38:46.595Z,78.87
2023-10-26T19:41:17.431Z,79.03
2023-10-26T19:43:45.529Z,79.27
2023-10-26T19:46:14.293Z,79.58
2023-10-26T19:48:42.506Z,80.02
2023-10-26T19:51:10.477Z,80.18
2023-10-26T19:53:38.595Z,80.43
2023-10-26T19:56:06.914Z,80.75
2023-10-26T19:58:34.792Z,81.04
2023-10-26T20:01:04.662Z,81.17
2023-10-26T20:03:33.097Z,81.35
2023-10-26T20:06:02.365Z,81.55
2023-10-26T20:08:31.969Z,81.52
2023-10-26T20:11:00.695Z,81.22
2023-10-26T20:13:28.810Z,81.23
2023-10-26T20:15:57.467Z,80.73
2023-10-26T20:18:25.390Z,80.21
2023-10-26T20:20:53.926Z,80.65
2023-10-26T20:23:21.968Z,80.96
2023-10-26T20:25:50.451Z,80.90
2023-10-26T20:28:18.805Z,80.73
2023-10-26T20:30:46.790Z,80.51
2023-10-26T20:33:14.785Z,80.61
2023-10-26T20:35:48.643Z,80.83
2023-10-26T20:38:16.738Z,80.70
2023-10-26T20:40:44.691Z,81.00
2023-10-26T20:43:13.173Z,81.24
2023-10-26T20:45:47.547Z,81.20
2023-10-26T20:48:15.541Z,81.44
2023-10-26T20:50:43.574Z,81.77
2023-10-26T20:53:11.690Z,81.68
2023-10-26T20:55:39.728Z,81.67
2023-10-26T20:58:07.847Z,81.82
2023-10-26T21:00:35.960Z,81.72
2023-10-26T21:03:04.090Z,81.41
2023-10-26T21:05:32.496Z,81.05
2023-10-26T21:08:00.505Z,81.10
2023-10-26T21:10:28.506Z,81.11
2023-10-26T21:12:56.681Z,81.20
2023-10-26T21:15:24.917Z,81.64
2023-10-26T21:17:53.033Z,81.47
2023-10-26T21:20:21.440Z,81.50
2023-10-26T21:22:49.416Z,81.74
2023-10-26T21:25:17.743Z,82.11
2023-10-26T21:27:45.868Z,82.34
2023-10-26T21:30:16.467Z,82.35
2023-10-26T21:32:44.600Z,82.19
2023-10-26T21:35:12.512Z,81.74
2023-10-26T21:37:40.478Z,81.97
2023-10-26T21:40:09.389Z,82.26
2023-10-26T21:42:37.539Z,82.25
2023-10-26T21:45:08.109Z,82.25
2023-10-26T21:47:36.319Z,82.15
2023-10-26T21:50:05.184Z,81.75
2023-10-26T21:52:33.339Z,81.92
2023-10-26T21:55:01.243Z,82.24
2023-10-26T21:57:29.153Z,82.11
2023-10-26T21:59:57.171Z,82.41
2023-10-26T22:02:26.113Z,82.74
2023-10-26T22:04:54.185Z,82.54
2023-10-26T22:07:22.320Z,82.15
2023-10-26T22:09:55.486Z,82.26
2023-10-26T22:12:23.998Z,82.72
2023-10-26T22:14:52.064Z,82.77
2023-10-26T22:17:20.180Z,82.83
2023-10-26T22:19:51.613Z,82.38
2023-10-26T22:22:19.895Z,82.25
2023-10-26T22:24:48.190Z,82.50
2023-10-26T22:27:16.351Z,83.28
2023-10-26T22:29:44.535Z,83.81
2023-10-26T22:32:12.968Z,84.05
2023-10-26T22:34:41.403Z,84.28
2023-10-26T22:37:09.436Z,84.28
2023-10-26T22:39:37.418Z,84.43
2023-10-26T22:42:05.599Z,84.29
2023-10-26T22:44:33.647Z,83.84
2023-10-26T22:47:01.606Z,84.00
2023-10-26T22:49:29.574Z,84.42
2023-10-26T22:51:57.647Z,84.98
2023-10-26T22:54:25.602Z,84.92
2023-10-26T22:56:53.526Z,84.61
2023-10-26T22:59:21.882Z,84.69
2023-10-26T23:01:51.181Z,84.83
2023-10-26T23:04:19.500Z,84.86
2023-10-26T23:06:48.122Z,84.86
2023-10-26T23:09:17.242Z,84.66
2023-10-26T23:11:45.364Z,84.22
2023-10-26T23:14:13.416Z,84.62
2023-10-26T23:16:41.371Z,85.01
2023-10-26T23:19:09.479Z,84.97
2023-10-26T23:21:37.565Z,84.68
2023-10-26T23:24:06.267Z,84.26
2023-10-26T23:26:35.320Z,84.24
2023-10-26T23:29:04.788Z,83.90
2023-10-26T23:31:34.213Z,84.22
2023-10-26T23:34:02.269Z,84.59
2023-10-26T23:36:30.300Z,84.82
2023-10-26T23:38:58.372Z,84.88
2023-10-26T23:41:26.312Z,85.07
2023-10-26T23:43:54.185Z,85.03
2023-10-26T23:46:22.176Z,84.98
2023-10-26T23:48:50.199Z,84.96
2023-10-26T23:51:19.183Z,84.70
2023-10-26T23:53:47.260Z,84.76
2023-10-26T23:56:15.406Z,84.67
2023-10-26T23:58:43.856Z,84.74
